createdAt,value
2019-03-27T00:00:09.490Z,8.13
2019-03-27T00:02:38.031Z,16.80
2019-03-27T00:05:06.698Z,4.10
2019-03-27T00:07:35.152Z,8.97
2019-03-27T00:10:05.543Z,18.53
2019-03-27T00:12:34.051Z,12.07
2019-03-27T00:15:12.801Z,21.43
2019-03-27T00:17:32.716Z,7.93
2019-03-27T00:20:01.198Z,9.33
2019-03-27T00:22:29.655Z,16.33
2019-03-27T00:24:58.127Z,7.77
2019-03-27T00:27:26.651Z,8.60
2019-03-27T00:29:55.105Z,6.63
2019-03-27T00:32:23.572Z,15.13
2019-03-27T00:34:52.067Z,14.43
2019-03-27T00:37:20.534Z,9.77
2019-03-27T00:39:48.986Z,10.00
2019-03-27T00:42:17.960Z,17.17
2019-03-27T00:44:46.412Z,3.53
2019-03-27T00:47:14.870Z,8.33
2019-03-27T00:49:43.394Z,7.63
2019-03-27T00:52:11.856Z,10.50
2019-03-27T00:54:40.405Z,22.63
2019-03-27T00:57:08.889Z,9.83
2019-03-27T00:59:37.363Z,8.20
2019-03-27T01:02:05.827Z,9.20
2019-03-27T01:04:34.336Z,3.70
2019-03-27T01:07:03.196Z,6.00
2019-03-27T01:09:31.643Z,7.87
2019-03-27T01:12:00.156Z,5.53
2019-03-27T01:14:28.613Z,9.03
2019-03-27T01:16:57.226Z,18.93
2019-03-27T01:19:25.712Z,14.23
2019-03-27T01:21:54.180Z,21.03
2019-03-27T01:24:22.636Z,19.90
2019-03-27T01:26:51.135Z,11.27
2019-03-27T01:29:19.605Z,14.03
2019-03-27T01:31:48.058Z,8.43
2019-03-27T01:34:16.573Z,14.63
2019-03-27T01:36:45.030Z,12.03
2019-03-27T01:39:13.483Z,12.07
2019-03-27T01:41:41.996Z,19.07
2019-03-27T01:44:10.448Z,7.27
2019-03-27T01:46:38.912Z,6.73
2019-03-27T01:49:07.432Z,11.80
2019-03-27T01:51:35.885Z,7.90
2019-03-27T01:54:04.365Z,14.73
2019-03-27T01:56:32.861Z,19.63
2019-03-27T01:59:01.325Z,6.70
2019-03-27T02:01:29.788Z,7.87
2019-03-27T02:03:58.273Z,13.90
2019-03-27T02:06:26.727Z,6.73
2019-03-27T02:08:55.309Z,5.80
2019-03-27T02:11:23.811Z,5.70
2019-03-27T02:13:52.264Z,9.47
2019-03-27T02:16:20.718Z,12.60
2019-03-27T02:18:49.234Z,8.40
2019-03-27T02:21:17.706Z,14.70
2019-03-27T02:23:46.178Z,13.27
2019-03-27T02:26:14.677Z,5.37
2019-03-27T02:28:43.127Z,9.70
2019-03-27T02:31:11.604Z,10.27
2019-03-27T02:33:40.110Z,14.23
2019-03-27T02:36:08.557Z,6.30
2019-03-27T02:38:37.041Z,4.80
2019-03-27T02:41:05.518Z,5.30
2019-03-27T02:43:33.952Z,6.40
2019-03-27T02:46:02.414Z,14.90
2019-03-27T02:48:30.899Z,18.50
2019-03-27T02:50:59.369Z,6.33
2019-03-27T02:53:27.812Z,11.00
2019-03-27T02:55:56.319Z,9.80
2019-03-27T02:58:24.782Z,8.57
2019-03-27T03:00:53.239Z,17.93
2019-03-27T03:03:21.736Z,11.70
2019-03-27T03:05:50.199Z,6.27
2019-03-27T03:08:18.653Z,13.73
2019-03-27T03:10:47.920Z,6.27
2019-03-27T03:13:16.360Z,6.17
2019-03-27T03:15:44.967Z,8.30
2019-03-27T03:18:13.449Z,10.43
2019-03-27T03:20:41.921Z,6.03
2019-03-27T03:23:10.377Z,12.23
2019-03-27T03:25:38.853Z,20.27
2019-03-27T03:28:07.314Z,12.53
2019-03-27T03:30:35.792Z,7.63
2019-03-27T03:33:04.292Z,11.10
2019-03-27T03:35:32.801Z,8.63
2019-03-27T03:38:01.250Z,7.60
2019-03-27T03:40:29.735Z,16.50
2019-03-27T03:42:58.205Z,19.73
2019-03-27T03:45:26.669Z,13.23
2019-03-27T03:47:55.165Z,11.83
2019-03-27T03:50:26.795Z,8.63
2019-03-27T03:52:55.270Z,13.67
2019-03-27T03:55:23.911Z,12.87
2019-03-27T03:57:52.437Z,13.17
2019-03-27T04:00:20.884Z,14.70
2019-03-27T04:02:49.943Z,13.43
2019-03-27T04:05:21.820Z,29.00
2019-03-27T04:07:50.277Z,11.57
2019-03-27T04:10:18.781Z,18.47
2019-03-27T04:12:47.284Z,13.47
2019-03-27T04:15:15.749Z,11.63
2019-03-27T04:17:44.283Z,18.27
2019-03-27T04:20:12.784Z,16.90
2019-03-27T04:22:41.239Z,15.20
2019-03-27T04:25:09.747Z,14.53
2019-03-27T04:27:38.199Z,12.87
2019-03-27T04:30:07.344Z,21.43
2019-03-27T04:32:35.784Z,10.77
2019-03-27T04:35:05.179Z,18.23
2019-03-27T04:37:33.634Z,20.30
2019-03-27T04:40:02.142Z,19.03
2019-03-27T04:42:30.595Z,11.07
2019-03-27T04:44:59.047Z,19.30
2019-03-27T04:47:32.501Z,9.53
2019-03-27T04:49:57.743Z,23.47
2019-03-27T04:52:26.183Z,9.77
2019-03-27T04:54:54.672Z,15.30
2019-03-27T04:57:23.152Z,14.70
2019-03-27T04:59:51.580Z,7.47
2019-03-27T05:02:20.076Z,13.57
2019-03-27T05:04:48.810Z,14.87
2019-03-27T05:07:17.257Z,20.83
2019-03-27T05:09:45.785Z,13.03
2019-03-27T05:12:14.241Z,22.80
2019-03-27T05:14:43.851Z,13.93
2019-03-27T05:17:12.326Z,9.60
2019-03-27T05:19:40.785Z,22.60
2019-03-27T05:22:09.244Z,14.70
2019-03-27T05:24:37.749Z,20.43
2019-03-27T05:27:06.219Z,17.30
2019-03-27T05:29:34.664Z,5.13
2019-03-27T05:32:03.159Z,13.47
2019-03-27T05:34:31.619Z,11.23
2019-03-27T05:37:00.141Z,7.20
2019-03-27T05:39:28.637Z,8.03
2019-03-27T05:41:57.105Z,24.50
2019-03-27T05:44:25.567Z,9.50
2019-03-27T05:46:54.054Z,17.60
2019-03-27T05:49:22.569Z,9.63
2019-03-27T05:51:51.045Z,7.63
2019-03-27T05:54:19.532Z,8.23
2019-03-27T05:56:48.003Z,23.23
2019-03-27T05:59:16.453Z,11.40
2019-03-27T06:01:44.949Z,7.13
2019-03-27T06:04:13.401Z,22.37
2019-03-27T06:06:41.856Z,13.47
2019-03-27T06:09:10.380Z,15.07
2019-03-27T06:11:38.817Z,16.07
2019-03-27T06:14:07.273Z,13.20
2019-03-27T06:16:35.898Z,19.53
2019-03-27T06:19:04.366Z,19.13
2019-03-27T06:21:32.833Z,4.00
2019-03-27T06:24:01.408Z,11.40
2019-03-27T06:26:29.910Z,26.63
2019-03-27T06:28:58.349Z,12.23
2019-03-27T06:31:26.817Z,8.97
2019-03-27T06:33:55.325Z,19.07
2019-03-27T06:36:23.811Z,17.97
2019-03-27T06:38:52.377Z,8.23
2019-03-27T06:41:20.865Z,23.73
2019-03-27T06:43:49.320Z,21.00
2019-03-27T06:46:17.822Z,23.87
2019-03-27T06:48:46.319Z,22.10
2019-03-27T06:51:14.851Z,21.10
2019-03-27T06:53:43.340Z,21.20
2019-03-27T06:56:13.429Z,12.20
2019-03-27T06:58:53.851Z,23.03
2019-03-27T07:01:12.115Z,27.83
2019-03-27T07:03:40.576Z,16.63
2019-03-27T07:06:09.056Z,20.80
2019-03-27T07:08:37.546Z,11.00
2019-03-27T07:11:06.026Z,19.00
2019-03-27T07:13:34.469Z,16.90
2019-03-27T07:16:02.991Z,22.03
2019-03-27T07:18:40.152Z,13.70
2019-03-27T07:21:02.640Z,19.20
2019-03-27T07:23:31.127Z,16.57
2019-03-27T07:25:59.572Z,14.00
2019-03-27T07:28:28.048Z,28.70
2019-03-27T07:30:56.568Z,16.30
2019-03-27T07:33:25.022Z,8.50
2019-03-27T07:35:53.489Z,20.27
2019-03-27T07:38:21.958Z,16.53
2019-03-27T07:40:50.416Z,15.93
2019-03-27T07:43:18.931Z,20.53
2019-03-27T07:45:47.414Z,16.70
2019-03-27T07:48:15.881Z,18.70
2019-03-27T07:50:44.333Z,25.17
2019-03-27T07:53:12.840Z,24.27
2019-03-27T07:55:41.319Z,19.30
2019-03-27T07:58:09.772Z,11.47
2019-03-27T08:00:38.262Z,24.40
2019-03-27T08:03:06.715Z,12.73
2019-03-27T08:05:35.169Z,15.53
2019-03-27T08:08:03.659Z,14.83
2019-03-27T08:10:32.112Z,9.60
2019-03-27T08:13:00.581Z,14.00
2019-03-27T08:15:29.078Z,25.53
2019-03-27T08:17:57.532Z,9.53
2019-03-27T08:20:26.132Z,7.73
2019-03-27T08:22:54.624Z,18.47
2019-03-27T08:25:23.090Z,12.13
2019-03-27T08:27:51.551Z,12.47
2019-03-27T08:30:20.180Z,15.53
2019-03-27T08:32:48.632Z,18.57
2019-03-27T08:35:17.161Z,16.37
2019-03-27T08:37:46.032Z,9.63
2019-03-27T08:40:14.969Z,20.83
2019-03-27T08:42:43.589Z,7.77
2019-03-27T08:45:12.510Z,8.67
2019-03-27T08:47:41.004Z,9.40
2019-03-27T08:50:10.371Z,14.07
2019-03-27T08:52:38.876Z,8.40
2019-03-27T08:55:07.687Z,13.07
2019-03-27T08:57:36.318Z,6.57
2019-03-27T09:00:10.062Z,14.47
2019-03-27T09:02:38.575Z,9.33
2019-03-27T09:05:08.091Z,10.20
2019-03-27T09:07:36.672Z,7.03
2019-03-27T09:10:10.394Z,15.07
2019-03-27T09:12:39.623Z,9.13
2019-03-27T09:15:09.295Z,15.63
2019-03-27T09:17:37.762Z,12.87
2019-03-27T09:20:07.091Z,9.03
2019-03-27T09:22:35.815Z,6.50
2019-03-27T09:25:05.998Z,11.80
2019-03-27T09:27:34.455Z,6.47
2019-03-27T09:30:05.777Z,5.40
2019-03-27T09:32:35.930Z,12.60
2019-03-27T09:35:07.695Z,5.70
2019-03-27T09:37:36.224Z,3.57
2019-03-27T09:40:07.524Z,6.53
2019-03-27T09:42:37.793Z,5.47
2019-03-27T09:45:09.583Z,3.70
2019-03-27T09:47:38.222Z,4.67
2019-03-27T09:50:06.893Z,11.93
2019-03-27T09:52:35.426Z,5.90
2019-03-27T09:55:05.423Z,6.60
2019-03-27T09:57:33.909Z,8.53
2019-03-27T10:00:02.377Z,10.63
2019-03-27T10:02:30.845Z,6.20
2019-03-27T10:04:59.331Z,11.40
2019-03-27T10:07:27.785Z,3.30
2019-03-27T10:09:56.248Z,4.53
2019-03-27T10:12:24.758Z,4.60
2019-03-27T10:14:53.187Z,14.40
2019-03-27T10:17:21.627Z,5.40
2019-03-27T10:20:02.754Z,6.60
2019-03-27T10:22:20.320Z,3.83
2019-03-27T10:24:48.894Z,2.97
2019-03-27T10:27:17.409Z,4.30
2019-03-27T10:29:45.866Z,4.40
2019-03-27T10:32:14.321Z,7.63
2019-03-27T10:34:42.835Z,3.73
2019-03-27T10:37:11.304Z,2.87
2019-03-27T10:39:39.770Z,5.13
2019-03-27T10:42:08.273Z,4.17
2019-03-27T10:44:36.731Z,3.30
2019-03-27T10:47:05.185Z,4.60
2019-03-27T10:49:34.533Z,4.67
2019-03-27T10:52:03.792Z,3.60
2019-03-27T10:54:32.236Z,3.27
2019-03-27T10:57:00.767Z,8.27
2019-03-27T10:59:29.240Z,4.83
2019-03-27T11:01:57.723Z,6.73
2019-03-27T11:04:26.204Z,4.47
2019-03-27T11:06:54.690Z,3.90
2019-03-27T11:09:23.140Z,3.97
2019-03-27T11:11:51.625Z,7.80
2019-03-27T11:14:20.095Z,3.50
2019-03-27T11:16:48.635Z,8.30
2019-03-27T11:19:17.140Z,10.53
2019-03-27T11:21:45.593Z,4.10
2019-03-27T11:24:14.054Z,5.23
2019-03-27T11:26:42.699Z,6.37
2019-03-27T11:29:11.140Z,7.60
2019-03-27T11:31:39.682Z,4.90
2019-03-27T11:34:08.198Z,11.77
2019-03-27T11:36:36.665Z,4.03
2019-03-27T11:39:08.311Z,4.87
2019-03-27T11:41:36.792Z,4.07
2019-03-27T11:44:05.434Z,4.87
2019-03-27T11:46:33.883Z,5.23
2019-03-27T11:49:02.381Z,7.57
2019-03-27T11:51:30.858Z,4.00
2019-03-27T11:53:59.311Z,4.03
2019-03-27T11:56:27.839Z,4.80
2019-03-27T11:58:56.351Z,4.97
2019-03-27T12:01:24.821Z,5.77
2019-03-27T12:03:54.239Z,4.37
2019-03-27T12:06:22.865Z,4.70
2019-03-27T12:08:51.346Z,6.97
2019-03-27T12:11:19.881Z,4.60
2019-03-27T12:13:48.795Z,4.60
2019-03-27T12:16:17.270Z,4.20
2019-03-27T12:18:45.751Z,5.00
2019-03-27T12:21:14.658Z,5.90
2019-03-27T12:23:43.131Z,4.73
2019-03-27T12:26:11.724Z,5.07
2019-03-27T12:28:41.198Z,5.40
2019-03-27T12:31:09.670Z,4.80
2019-03-27T12:33:38.121Z,6.67
2019-03-27T12:36:06.587Z,9.33
2019-03-27T12:38:35.082Z,9.90
2019-03-27T12:41:03.551Z,6.03
2019-03-27T12:43:32.017Z,7.13
2019-03-27T12:46:00.555Z,5.87
2019-03-27T12:48:29.009Z,6.00
2019-03-27T12:50:57.477Z,8.50
2019-03-27T12:53:25.975Z,6.87
2019-03-27T12:55:54.439Z,5.87
2019-03-27T12:58:22.892Z,8.00
2019-03-27T13:00:51.378Z,6.77
2019-03-27T13:03:21.436Z,11.53
2019-03-27T13:05:49.888Z,11.10
2019-03-27T13:08:18.396Z,12.90
2019-03-27T13:10:46.859Z,13.17
2019-03-27T13:13:15.325Z,14.30
2019-03-27T13:15:43.973Z,13.67
2019-03-27T13:18:12.470Z,12.37
2019-03-27T13:20:40.959Z,12.77
2019-03-27T13:23:09.483Z,17.10
2019-03-27T13:25:37.957Z,21.57
2019-03-27T13:28:06.520Z,17.20
2019-03-27T13:30:35.158Z,17.03
2019-03-27T13:33:03.663Z,15.00
2019-03-27T13:35:32.129Z,20.90
2019-03-27T13:38:00.650Z,20.20
2019-03-27T13:40:29.133Z,22.93
2019-03-27T13:42:57.623Z,22.90
2019-03-27T13:45:27.072Z,21.77
2019-03-27T13:47:55.572Z,22.53
2019-03-27T13:50:24.199Z,28.50
2019-03-27T13:52:52.717Z,25.40
2019-03-27T13:55:21.176Z,25.30
2019-03-27T13:57:49.640Z,24.40
2019-03-27T14:00:18.539Z,20.20
2019-03-27T14:02:47.008Z,24.10
2019-03-27T14:05:15.846Z,28.10
2019-03-27T14:07:44.468Z,27.83
2019-03-27T14:10:13.437Z,19.10
2019-03-27T14:12:41.929Z,24.00
2019-03-27T14:15:11.063Z,29.43
2019-03-27T14:17:39.987Z,19.00
2019-03-27T14:20:09.304Z,19.47
2019-03-27T14:22:37.849Z,24.13
2019-03-27T14:25:10.194Z,17.57
2019-03-27T14:27:38.678Z,23.63
2019-03-27T14:30:10.027Z,19.43
2019-03-27T14:32:39.581Z,22.33
2019-03-27T14:35:09.021Z,28.87
2019-03-27T14:37:37.467Z,29.53
2019-03-27T14:40:07.492Z,24.87
2019-03-27T14:42:36.080Z,17.20
2019-03-27T14:45:08.764Z,21.50
2019-03-27T14:47:37.317Z,20.77
2019-03-27T14:50:09.077Z,14.80
2019-03-27T14:52:37.519Z,9.33
2019-03-27T14:55:07.466Z,19.73
2019-03-27T14:57:36.278Z,11.10
2019-03-27T15:00:07.715Z,18.20
2019-03-27T15:02:36.181Z,16.10
2019-03-27T15:05:06.258Z,25.20
2019-03-27T15:07:34.729Z,22.33
2019-03-27T15:10:03.864Z,24.50
2019-03-27T15:12:32.379Z,13.87
2019-03-27T15:15:00.862Z,20.23
2019-03-27T15:17:29.323Z,18.50
2019-03-27T15:19:57.850Z,13.07
2019-03-27T15:22:26.293Z,21.50
2019-03-27T15:24:54.769Z,26.40
2019-03-27T15:27:23.265Z,24.67
2019-03-27T15:29:51.729Z,17.33
2019-03-27T15:32:20.190Z,21.83
2019-03-27T15:34:48.764Z,13.67
2019-03-27T15:37:17.711Z,25.93
2019-03-27T15:39:46.173Z,16.90
2019-03-27T15:42:14.657Z,19.27
2019-03-27T15:44:43.112Z,20.37
2019-03-27T15:47:11.580Z,22.40
2019-03-27T15:49:40.180Z,28.77
2019-03-27T15:52:08.651Z,24.23
2019-03-27T15:54:37.114Z,23.00
2019-03-27T15:57:05.644Z,26.27
2019-03-27T15:59:34.080Z,22.77
2019-03-27T16:02:02.570Z,28.60
2019-03-27T16:04:31.056Z,23.80
2019-03-27T16:07:00.498Z,25.27
2019-03-27T16:09:28.975Z,25.70
2019-03-27T16:11:59.138Z,18.17
2019-03-27T16:14:27.594Z,13.37
2019-03-27T16:17:11.931Z,8.23
2019-03-27T16:19:26.342Z,8.10
2019-03-27T16:21:54.794Z,9.03
2019-03-27T16:24:23.237Z,6.20
2019-03-27T16:27:03.851Z,15.17
2019-03-27T16:29:21.948Z,14.23
2019-03-27T16:31:50.403Z,10.17
2019-03-27T16:34:18.882Z,13.10
2019-03-27T16:36:47.651Z,7.13
2019-03-27T16:39:16.137Z,12.63
2019-03-27T16:41:44.634Z,9.47
2019-03-27T16:44:13.173Z,14.50
2019-03-27T16:46:41.639Z,4.70
2019-03-27T16:49:10.124Z,5.10
2019-03-27T16:51:38.571Z,4.17
2019-03-27T16:54:07.025Z,7.03
2019-03-27T16:56:35.488Z,6.70
2019-03-27T16:59:03.954Z,6.07
2019-03-27T17:01:32.401Z,5.17
2019-03-27T17:04:00.930Z,7.77
2019-03-27T17:06:29.377Z,7.30
2019-03-27T17:08:57.833Z,7.87
2019-03-27T17:11:26.428Z,10.20
2019-03-27T17:13:54.869Z,6.00
2019-03-27T17:16:23.318Z,5.07
2019-03-27T17:18:51.819Z,6.30
2019-03-27T17:21:20.282Z,6.97
2019-03-27T17:23:48.757Z,7.60
2019-03-27T17:26:17.297Z,10.93
2019-03-27T17:28:45.785Z,7.30
2019-03-27T17:31:14.360Z,5.93
2019-03-27T17:33:43.224Z,5.27
2019-03-27T17:36:11.851Z,4.97
2019-03-27T17:38:41.609Z,7.37
2019-03-27T17:41:10.236Z,7.33
2019-03-27T17:43:38.727Z,4.03
2019-03-27T17:46:07.256Z,5.67
2019-03-27T17:48:36.132Z,4.97
2019-03-27T17:51:05.065Z,9.83
2019-03-27T17:53:33.791Z,5.37
2019-03-27T17:56:02.651Z,5.47
2019-03-27T17:58:31.333Z,6.70
2019-03-27T18:01:01.708Z,7.50
2019-03-27T18:03:30.843Z,5.57
2019-03-27T18:05:59.446Z,6.10
2019-03-27T18:08:28.083Z,5.57
2019-03-27T18:10:57.281Z,7.63
2019-03-27T18:13:26.195Z,6.47
2019-03-27T18:15:54.694Z,5.67
2019-03-27T18:18:23.208Z,6.77
2019-03-27T18:20:51.670Z,5.80
2019-03-27T18:23:20.124Z,6.00
2019-03-27T18:25:48.664Z,5.43
2019-03-27T18:28:17.144Z,5.83
2019-03-27T18:30:45.665Z,5.87
2019-03-27T18:33:14.174Z,5.83
2019-03-27T18:35:42.693Z,6.70
2019-03-27T18:38:11.150Z,6.03
2019-03-27T18:40:39.702Z,6.77
2019-03-27T18:43:08.164Z,6.73
2019-03-27T18:45:36.622Z,7.53
2019-03-27T18:48:05.123Z,7.17
2019-03-27T18:50:33.578Z,6.40
2019-03-27T18:53:02.040Z,7.53
2019-03-27T18:55:30.548Z,10.43
2019-03-27T18:58:00.648Z,9.13
2019-03-27T19:00:29.427Z,9.53
2019-03-27T19:02:57.995Z,8.13
2019-03-27T19:05:26.458Z,7.27
2019-03-27T19:07:54.910Z,8.47
2019-03-27T19:10:23.402Z,8.43
2019-03-27T19:12:51.857Z,9.20
2019-03-27T19:15:20.306Z,6.50
2019-03-27T19:17:48.838Z,7.40
2019-03-27T19:20:17.364Z,9.77
2019-03-27T19:22:45.893Z,7.77
2019-03-27T19:25:14.388Z,8.40
2019-03-27T19:27:42.840Z,9.63
2019-03-27T19:30:11.496Z,12.87
2019-03-27T19:32:40.000Z,9.67
2019-03-27T19:35:08.457Z,10.33
2019-03-27T19:37:36.909Z,9.07
2019-03-27T19:40:06.059Z,8.70
2019-03-27T19:42:34.671Z,9.93
2019-03-27T19:45:03.741Z,9.90
2019-03-27T19:47:32.235Z,11.20
2019-03-27T19:50:00.711Z,10.40
2019-03-27T19:52:29.161Z,10.97
2019-03-27T19:54:57.662Z,11.90
2019-03-27T19:57:26.120Z,10.53
2019-03-27T19:59:54.573Z,11.13
2019-03-27T20:02:23.061Z,16.03
2019-03-27T20:04:51.507Z,9.83
2019-03-27T20:07:19.971Z,12.63
2019-03-27T20:09:48.515Z,12.30
2019-03-27T20:12:16.935Z,9.63
2019-03-27T20:14:45.392Z,13.43
2019-03-27T20:17:13.914Z,15.53
2019-03-27T20:19:42.381Z,12.40
2019-03-27T20:22:10.877Z,12.20
2019-03-27T20:24:41.190Z,9.13
2019-03-27T20:27:09.543Z,11.13
2019-03-27T20:29:38.006Z,18.87
2019-03-27T20:32:06.519Z,17.17
2019-03-27T20:34:37.721Z,16.20
2019-03-27T20:37:06.185Z,12.10
2019-03-27T20:39:34.679Z,16.30
2019-03-27T20:42:03.221Z,10.97
2019-03-27T20:44:31.681Z,13.50
2019-03-27T20:47:00.217Z,10.93
2019-03-27T20:49:28.655Z,10.30
2019-03-27T20:51:57.112Z,10.47
2019-03-27T20:54:26.005Z,15.70
2019-03-27T20:56:54.593Z,10.77
2019-03-27T20:59:23.052Z,10.77
2019-03-27T21:01:51.628Z,11.53
2019-03-27T21:04:20.082Z,9.67
2019-03-27T21:06:48.527Z,7.93
2019-03-27T21:09:17.034Z,8.13
2019-03-27T21:11:45.486Z,15.27
2019-03-27T21:14:13.942Z,11.67
2019-03-27T21:16:42.409Z,9.07
2019-03-27T21:19:10.881Z,9.80
2019-03-27T21:21:41.798Z,9.30
2019-03-27T21:24:09.609Z,13.43
2019-03-27T21:26:38.052Z,9.43
2019-03-27T21:29:06.511Z,11.87
2019-03-27T21:31:35.007Z,8.40
2019-03-27T21:34:03.464Z,7.63
2019-03-27T21:36:31.921Z,7.97
2019-03-27T21:39:00.388Z,8.47
2019-03-27T21:41:28.904Z,8.20
2019-03-27T21:43:57.491Z,8.70
2019-03-27T21:46:25.990Z,7.63
2019-03-27T21:48:54.438Z,7.00
2019-03-27T21:51:22.898Z,7.20
2019-03-27T21:53:51.387Z,7.20
2019-03-27T21:56:19.844Z,6.63
2019-03-27T21:58:48.304Z,6.93
2019-03-27T22:01:16.806Z,6.80
2019-03-27T22:03:45.254Z,7.37
2019-03-27T22:06:13.696Z,5.90
2019-03-27T22:08:42.203Z,5.90
2019-03-27T22:11:10.646Z,6.47
2019-03-27T22:13:39.087Z,6.13
2019-03-27T22:16:07.571Z,6.37
2019-03-27T22:18:36.028Z,6.03
2019-03-27T22:21:04.484Z,7.03
2019-03-27T22:23:32.967Z,6.30
2019-03-27T22:26:01.431Z,6.30
2019-03-27T22:28:29.894Z,6.20
2019-03-27T22:30:58.396Z,6.40
2019-03-27T22:33:26.883Z,7.30
2019-03-27T22:35:55.327Z,6.30
2019-03-27T22:38:23.849Z,8.57
2019-03-27T22:40:52.297Z,6.30
2019-03-27T22:43:20.741Z,12.90
2019-03-27T22:45:50.298Z,6.10
2019-03-27T22:48:18.741Z,6.50
2019-03-27T22:50:47.181Z,7.23
2019-03-27T22:53:15.692Z,6.77
2019-03-27T22:55:50.347Z,5.63
2019-03-27T22:58:14.309Z,5.60
2019-03-27T23:00:49.213Z,6.17
2019-03-27T23:03:18.917Z,5.80
2019-03-27T23:05:47.614Z,5.53
2019-03-27T23:08:16.092Z,5.37
2019-03-27T23:10:44.531Z,7.37
2019-03-27T23:13:13.157Z,5.33
2019-03-27T23:15:41.732Z,5.93
2019-03-27T23:18:10.196Z,5.50
2019-03-27T23:20:38.647Z,7.23
2019-03-27T23:23:07.138Z,6.30
2019-03-27T23:25:35.583Z,7.17
2019-03-27T23:28:04.019Z,7.20
2019-03-27T23:30:32.517Z,8.10
2019-03-27T23:33:00.972Z,7.10
2019-03-27T23:35:29.414Z,9.33
2019-03-27T23:37:57.913Z,7.73
2019-03-27T23:40:26.432Z,8.77
2019-03-27T23:42:54.901Z,6.80
2019-03-27T23:45:23.397Z,12.07
2019-03-27T23:47:51.997Z,10.23
2019-03-27T23:50:20.463Z,5.70
2019-03-27T23:52:48.974Z,5.47
2019-03-27T23:55:17.435Z,9.13
2019-03-27T23:57:45.882Z,11.20
